sensor_id;sensor_type;location;lat;lon;timestamp;pressure;altitude;pressure_sealevel;temperature;humidity
50977;BME280;36992;48.200;12.418;2023-08-07T00:02:18;96314.72;;;16.22;51.73
50977;BME280;36992;48.200;12.418;2023-08-07T00:04:48;96313.94;;;16.21;52.04
50977;BME280;36992;48.200;12.418;2023-08-07T00:07:21;96312.31;;;16.20;52.08
50977;BME280;36992;48.200;12.418;2023-08-07T00:10:10;96313.13;;;16.21;51.61
50977;BME280;36992;48.200;12.418;2023-08-07T00:12:54;96318.25;;;16.22;51.28
50977;BME280;36992;48.200;12.418;2023-08-07T00:15:31;96320.97;;;16.22;51.83
50977;BME280;36992;48.200;12.418;2023-08-07T00:17:59;96320.03;;;16.18;51.76
50977;BME280;36992;48.200;12.418;2023-08-07T00:20:40;96322.75;;;16.18;52.10
50977;BME280;36992;48.200;12.418;2023-08-07T00:23:19;96322.09;;;16.21;51.06
50977;BME280;36992;48.200;12.418;2023-08-07T00:25:56;96310.75;;;16.19;51.33
50977;BME280;36992;48.200;12.418;2023-08-07T00:28:40;96318.00;;;16.15;51.16
50977;BME280;36992;48.200;12.418;2023-08-07T00:31:23;96318.34;;;16.13;50.84
50977;BME280;36992;48.200;12.418;2023-08-07T00:34:23;96319.59;;;16.16;51.03
50977;BME280;36992;48.200;12.418;2023-08-07T00:43:47;96322.19;;;16.12;51.66
50977;BME280;36992;48.200;12.418;2023-08-07T00:47:03;96330.78;;;16.14;51.92
50977;BME280;36992;48.200;12.418;2023-08-07T00:49:36;96346.84;;;16.07;52.26
50977;BME280;36992;48.200;12.418;2023-08-07T00:52:14;96320.22;;;16.00;52.53
50977;BME280;36992;48.200;12.418;2023-08-07T00:54:53;96321.50;;;16.03;52.00
50977;BME280;36992;48.200;12.418;2023-08-07T00:57:34;96332.94;;;15.96;52.73
50977;BME280;36992;48.200;12.418;2023-08-07T01:00:19;96331.78;;;15.97;53.09
50977;BME280;36992;48.200;12.418;2023-08-07T01:02:49;96326.56;;;15.92;52.64
50977;BME280;36992;48.200;12.418;2023-08-07T01:05:22;96341.13;;;15.87;52.80
50977;BME280;36992;48.200;12.418;2023-08-07T01:07:53;96340.81;;;15.89;53.15
50977;BME280;36992;48.200;12.418;2023-08-07T01:10:27;96333.31;;;15.86;52.99
50977;BME280;36992;48.200;12.418;2023-08-07T01:13:11;96332.50;;;15.85;53.02
50977;BME280;36992;48.200;12.418;2023-08-07T01:15:42;96338.06;;;15.76;53.48
50977;BME280;36992;48.200;12.418;2023-08-07T01:18:08;96337.13;;;15.72;53.82
50977;BME280;36992;48.200;12.418;2023-08-07T01:20:36;96331.25;;;15.70;53.94
50977;BME280;36992;48.200;12.418;2023-08-07T01:23:07;96334.75;;;15.71;54.00
50977;BME280;36992;48.200;12.418;2023-08-07T01:25:36;96327.59;;;15.66;54.31
50977;BME280;36992;48.200;12.418;2023-08-07T01:28:11;96338.47;;;15.66;54.10
50977;BME280;36992;48.200;12.418;2023-08-07T01:30:55;96327.59;;;15.66;53.96
50977;BME280;36992;48.200;12.418;2023-08-07T01:33:39;96339.13;;;15.63;54.46
50977;BME280;36992;48.200;12.418;2023-08-07T01:36:16;96342.06;;;15.58;54.60
50977;BME280;36992;48.200;12.418;2023-08-07T01:38:44;96340.00;;;15.55;54.69
50977;BME280;36992;48.200;12.418;2023-08-07T01:41:12;96333.19;;;15.48;54.96
50977;BME280;36992;48.200;12.418;2023-08-07T01:43:38;96335.47;;;15.46;55.28
50977;BME280;36992;48.200;12.418;2023-08-07T01:46:05;96343.13;;;15.44;55.03
50977;BME280;36992;48.200;12.418;2023-08-07T01:48:32;96346.19;;;15.43;55.13
50977;BME280;36992;48.200;12.418;2023-08-07T01:50:58;96342.22;;;15.40;54.75
50977;BME280;36992;48.200;12.418;2023-08-07T01:53:25;96342.88;;;15.37;55.42
50977;BME280;36992;48.200;12.418;2023-08-07T01:55:53;96340.97;;;15.37;55.38
50977;BME280;36992;48.200;12.418;2023-08-07T01:58:19;96344.19;;;15.31;55.74
50977;BME280;36992;48.200;12.418;2023-08-07T02:00:45;96343.75;;;15.29;55.63
50977;BME280;36992;48.200;12.418;2023-08-07T02:03:12;96347.91;;;15.26;55.65
50977;BME280;36992;48.200;12.418;2023-08-07T02:05:38;96346.34;;;15.25;56.08
50977;BME280;36992;48.200;12.418;2023-08-07T02:08:05;96354.78;;;15.23;55.98
50977;BME280;36992;48.200;12.418;2023-08-07T02:10:31;96358.19;;;15.20;55.79
50977;BME280;36992;48.200;12.418;2023-08-07T02:12:59;96359.28;;;15.19;56.07
50977;BME280;36992;48.200;12.418;2023-08-07T02:15:26;96361.53;;;15.17;56.45
50977;BME280;36992;48.200;12.418;2023-08-07T02:17:52;96363.81;;;15.15;56.39
50977;BME280;36992;48.200;12.418;2023-08-07T02:20:19;96366.03;;;15.13;56.43
50977;BME280;36992;48.200;12.418;2023-08-07T02:22:45;96360.97;;;15.12;55.92
50977;BME280;36992;48.200;12.418;2023-08-07T02:25:12;96355.84;;;15.10;56.57
50977;BME280;36992;48.200;12.418;2023-08-07T02:27:38;96363.88;;;15.06;56.38
50977;BME280;36992;48.200;12.418;2023-08-07T02:30:07;96360.03;;;15.07;56.34
50977;BME280;36992;48.200;12.418;2023-08-07T02:32:33;96370.94;;;14.99;56.96
50977;BME280;36992;48.200;12.418;2023-08-07T02:35:00;96378.13;;;14.94;57.31
50977;BME280;36992;48.200;12.418;2023-08-07T02:37:26;96372.25;;;14.92;57.21
50977;BME280;36992;48.200;12.418;2023-08-07T02:39:53;96369.06;;;14.90;57.46
50977;BME280;36992;48.200;12.418;2023-08-07T02:42:19;96377.53;;;14.89;57.24
50977;BME280;36992;48.200;12.418;2023-08-07T02:44:46;96379.66;;;14.83;57.37
50977;BME280;36992;48.200;12.418;2023-08-07T02:47:14;96382.38;;;14.83;57.15
50977;BME280;36992;48.200;12.418;2023-08-07T02:49:51;96374.69;;;14.85;56.95
50977;BME280;36992;48.200;12.418;2023-08-07T02:52:23;96377.91;;;14.78;57.15
50977;BME280;36992;48.200;12.418;2023-08-07T02:54:52;96379.16;;;14.81;57.56
50977;BME280;36992;48.200;12.418;2023-08-07T02:57:43;96386.53;;;14.80;57.14
50977;BME280;36992;48.200;12.418;2023-08-07T03:00:10;96395.75;;;14.79;56.90
50977;BME280;36992;48.200;12.418;2023-08-07T03:02:38;96395.63;;;14.76;57.46
50977;BME280;36992;48.200;12.418;2023-08-07T03:05:05;96396.25;;;14.73;57.44
50977;BME280;36992;48.200;12.418;2023-08-07T03:07:32;96389.88;;;14.68;57.63
50977;BME280;36992;48.200;12.418;2023-08-07T03:09:58;96378.25;;;14.68;57.53
50977;BME280;36992;48.200;12.418;2023-08-07T03:12:25;96390.69;;;14.69;57.85
50977;BME280;36992;48.200;12.418;2023-08-07T03:14:52;96396.44;;;14.67;57.35
50977;BME280;36992;48.200;12.418;2023-08-07T03:17:18;96396.44;;;14.67;57.65
50977;BME280;36992;48.200;12.418;2023-08-07T03:19:47;96393.72;;;14.67;57.02
50977;BME280;36992;48.200;12.418;2023-08-07T03:22:14;96389.44;;;14.66;57.21
50977;BME280;36992;48.200;12.418;2023-08-07T03:24:41;96393.91;;;14.62;57.43
50977;BME280;36992;48.200;12.418;2023-08-07T03:27:07;96410.66;;;14.64;57.77
50977;BME280;36992;48.200;12.418;2023-08-07T03:29:33;96396.28;;;14.64;57.36
50977;BME280;36992;48.200;12.418;2023-08-07T03:32:00;96407.00;;;14.60;57.72
50977;BME280;36992;48.200;12.418;2023-08-07T03:34:27;96412.41;;;14.60;57.55
50977;BME280;36992;48.200;12.418;2023-08-07T03:36:55;96415.59;;;14.62;57.31
50977;BME280;36992;48.200;12.418;2023-08-07T03:39:21;96417.84;;;14.60;57.87
50977;BME280;36992;48.200;12.418;2023-08-07T03:41:48;96417.03;;;14.60;57.21
50977;BME280;36992;48.200;12.418;2023-08-07T03:44:15;96423.91;;;14.57;58.02
50977;BME280;36992;48.200;12.418;2023-08-07T03:46:41;96428.22;;;14.58;57.90
50977;BME280;36992;48.200;12.418;2023-08-07T03:49:08;96427.41;;;14.57;57.62
50977;BME280;36992;48.200;12.418;2023-08-07T03:51:34;96415.75;;;14.57;57.20
50977;BME280;36992;48.200;12.418;2023-08-07T03:54:02;96425.03;;;14.56;57.39
50977;BME280;36992;48.200;12.418;2023-08-07T03:56:29;96430.63;;;14.51;57.85
50977;BME280;36992;48.200;12.418;2023-08-07T03:58:57;96431.09;;;14.53;57.35
50977;BME280;36992;48.200;12.418;2023-08-07T04:01:24;96431.09;;;14.53;57.40
50977;BME280;36992;48.200;12.418;2023-08-07T04:03:50;96435.72;;;14.52;57.69
50977;BME280;36992;48.200;12.418;2023-08-07T04:06:17;96441.13;;;14.52;57.62
50977;BME280;36992;48.200;12.418;2023-08-07T04:08:45;96448.94;;;14.54;57.50
50977;BME280;36992;48.200;12.418;2023-08-07T04:11:12;96438.13;;;14.54;57.18
50977;BME280;36992;48.200;12.418;2023-08-07T04:13:39;96447.69;;;14.51;57.75
50977;BME280;36992;48.200;12.418;2023-08-07T04:16:05;96445.28;;;14.50;57.70
50977;BME280;36992;48.200;12.418;2023-08-07T04:18:32;96443.69;;;14.49;57.83
50977;BME280;36992;48.200;12.418;2023-08-07T04:20:59;96450.72;;;14.50;57.69
50977;BME280;36992;48.200;12.418;2023-08-07T04:23:25;96448.66;;;14.47;57.33
50977;BME280;36992;48.200;12.418;2023-08-07T04:25:53;96445.63;;;14.48;57.88
50977;BME280;36992;48.200;12.418;2023-08-07T04:28:21;96451.53;;;14.50;57.93
50977;BME280;36992;48.200;12.418;2023-08-07T04:30:49;96461.56;;;14.50;57.80
50977;BME280;36992;48.200;12.418;2023-08-07T04:33:17;96455.22;;;14.46;57.93
50977;BME280;36992;48.200;12.418;2023-08-07T04:35:43;96456.47;;;14.48;57.69
50977;BME280;36992;48.200;12.418;2023-08-07T04:38:11;96463.47;;;14.49;57.66
50977;BME280;36992;48.200;12.418;2023-08-07T04:40:43;96460.44;;;14.51;57.35
50977;BME280;36992;48.200;12.418;2023-08-07T04:43:10;96469.06;;;14.44;57.84
50977;BME280;36992;48.200;12.418;2023-08-07T04:45:38;96465.25;;;14.45;57.88
50977;BME280;36992;48.200;12.418;2023-08-07T04:48:04;96467.16;;;14.44;58.07
50977;BME280;36992;48.200;12.418;2023-08-07T04:50:31;96465.25;;;14.45;58.14
50977;BME280;36992;48.200;12.418;2023-08-07T04:52:57;96473.38;;;14.45;57.97
50977;BME280;36992;48.200;12.418;2023-08-07T04:55:25;96467.94;;;14.45;57.68
50977;BME280;36992;48.200;12.418;2023-08-07T04:57:51;96470.34;;;14.47;58.13
50977;BME280;36992;48.200;12.418;2023-08-07T05:00:19;96486.59;;;14.47;57.85
50977;BME280;36992;48.200;12.418;2023-08-07T05:02:47;96470.81;;;14.49;57.52
50977;BME280;36992;48.200;12.418;2023-08-07T05:05:14;96484.22;;;14.45;58.02
50977;BME280;36992;48.200;12.418;2023-08-07T05:07:41;96486.59;;;14.47;57.76
50977;BME280;36992;48.200;12.418;2023-08-07T05:10:09;96483.56;;;14.48;57.76
50977;BME280;36992;48.200;12.418;2023-08-07T05:12:35;96490.91;;;14.48;57.43
50977;BME280;36992;48.200;12.418;2023-08-07T05:15:02;96491.22;;;14.46;57.44
50977;BME280;36992;48.200;12.418;2023-08-07T05:17:29;96490.44;;;14.46;57.69
50977;BME280;36992;48.200;12.418;2023-08-07T05:19:57;96495.50;;;14.47;57.30
50977;BME280;36992;48.200;12.418;2023-08-07T05:22:23;96502.88;;;14.47;57.46
50977;BME280;36992;48.200;12.418;2023-08-07T05:24:49;96510.84;;;14.43;56.99
50977;BME280;36992;48.200;12.418;2023-08-07T05:27:16;96501.91;;;14.42;57.59
50977;BME280;36992;48.200;12.418;2023-08-07T05:29:42;96508.75;;;14.40;57.12
50977;BME280;36992;48.200;12.418;2023-08-07T05:32:10;96508.63;;;14.36;57.24
50977;BME280;36992;48.200;12.418;2023-08-07T05:34:36;96505.91;;;14.36;57.25
50977;BME280;36992;48.200;12.418;2023-08-07T05:37:05;96504.78;;;14.37;57.30
50977;BME280;36992;48.200;12.418;2023-08-07T05:39:31;96511.97;;;14.33;57.79
50977;BME280;36992;48.200;12.418;2023-08-07T05:41:58;96509.28;;;14.33;57.06
50977;BME280;36992;48.200;12.418;2023-08-07T05:44:25;96518.19;;;14.34;57.79
50977;BME280;36992;48.200;12.418;2023-08-07T05:46:51;96513.06;;;14.32;57.36
50977;BME280;36992;48.200;12.418;2023-08-07T05:49:18;96523.91;;;14.32;57.38
50977;BME280;36992;48.200;12.418;2023-08-07T05:51:45;96521.19;;;14.32;56.79
50977;BME280;36992;48.200;12.418;2023-08-07T05:54:15;96523.28;;;14.35;57.13
50977;BME280;36992;48.200;12.418;2023-08-07T05:56:42;96532.38;;;14.30;57.30
50977;BME280;36992;48.200;12.418;2023-08-07T05:59:09;96526.16;;;14.30;57.32
50977;BME280;36992;48.200;12.418;2023-08-07T06:01:35;96531.56;;;14.30;57.28
50977;BME280;36992;48.200;12.418;2023-08-07T06:04:02;96537.47;;;14.32;57.80
50977;BME280;36992;48.200;12.418;2023-08-07T06:06:29;96533.16;;;14.31;57.89
50977;BME280;36992;48.200;12.418;2023-08-07T06:08:59;96534.75;;;14.32;57.39
50977;BME280;36992;48.200;12.418;2023-08-07T06:11:27;96526.81;;;14.36;57.24
50977;BME280;36992;48.200;12.418;2023-08-07T06:13:53;96526.63;;;14.32;57.47
50977;BME280;36992;48.200;12.418;2023-08-07T06:16:20;96532.22;;;14.36;57.54
50977;BME280;36992;48.200;12.418;2023-08-07T06:18:46;96534.13;;;14.35;57.66
50977;BME280;36992;48.200;12.418;2023-08-07T06:21:13;96535.25;;;14.34;57.36
50977;BME280;36992;48.200;12.418;2023-08-07T06:23:39;96532.22;;;14.36;57.75
50977;BME280;36992;48.200;12.418;2023-08-07T06:26:06;96534.13;;;14.35;57.17
50977;BME280;36992;48.200;12.418;2023-08-07T06:28:35;96541.13;;;14.36;57.02
50977;BME280;36992;48.200;12.418;2023-08-07T06:31:01;96547.34;;;14.37;57.37
50977;BME280;36992;48.200;12.418;2023-08-07T06:33:28;96553.56;;;14.37;57.19
50977;BME280;36992;48.200;12.418;2023-08-07T06:35:55;96551.34;;;14.39;57.65
50977;BME280;36992;48.200;12.418;2023-08-07T06:38:21;96552.13;;;14.40;57.75
50977;BME280;36992;48.200;12.418;2023-08-07T06:40:48;96555.94;;;14.39;57.47
50977;BME280;36992;48.200;12.418;2023-08-07T06:43:14;96548.63;;;14.39;57.50
50977;BME280;36992;48.200;12.418;2023-08-07T06:45:42;96552.28;;;14.43;56.98
50977;BME280;36992;48.200;12.418;2023-08-07T06:48:08;96556.09;;;14.42;57.38
50977;BME280;36992;48.200;12.418;2023-08-07T06:50:35;96564.69;;;14.44;57.78
50977;BME280;36992;48.200;12.418;2023-08-07T06:53:01;96568.53;;;14.43;57.36
50977;BME280;36992;48.200;12.418;2023-08-07T06:55:28;96563.13;;;14.43;57.78
50977;BME280;36992;48.200;12.418;2023-08-07T06:57:54;96571.75;;;14.46;57.52
50977;BME280;36992;48.200;12.418;2023-08-07T07:00:21;96576.03;;;14.47;57.37
50977;BME280;36992;48.200;12.418;2023-08-07T07:02:48;96578.09;;;14.50;57.71
50977;BME280;36992;48.200;12.418;2023-08-07T07:05:15;96570.31;;;14.48;57.44
50977;BME280;36992;48.200;12.418;2023-08-07T07:07:41;96578.91;;;14.50;57.42
50977;BME280;36992;48.200;12.418;2023-08-07T07:10:08;96573.63;;;14.54;57.61
50977;BME280;36992;48.200;12.418;2023-08-07T07:12:35;96583.34;;;14.55;57.83
50977;BME280;36992;48.200;12.418;2023-08-07T07:15:02;96587.66;;;14.56;57.03
50977;BME280;36992;48.200;12.418;2023-08-07T07:17:29;96595.47;;;14.57;56.90
50977;BME280;36992;48.200;12.418;2023-08-07T07:19:57;96587.81;;;14.60;57.19
50977;BME280;36992;48.200;12.418;2023-08-07T07:22:23;96594.03;;;14.60;57.10
50977;BME280;36992;48.200;12.418;2023-08-07T07:24:50;96590.19;;;14.61;57.35
50977;BME280;36992;48.200;12.418;2023-08-07T07:27:16;96592.59;;;14.63;57.47
50977;BME280;36992;48.200;12.418;2023-08-07T07:29:43;96603.13;;;14.64;56.92
50977;BME280;36992;48.200;12.418;2023-08-07T07:32:09;96590.03;;;14.66;57.39
50977;BME280;36992;48.200;12.418;2023-08-07T07:34:36;96596.72;;;14.69;57.69
50977;BME280;36992;48.200;12.418;2023-08-07T07:37:04;96596.88;;;14.73;57.01
50977;BME280;36992;48.200;12.418;2023-08-07T07:39:30;96605.50;;;14.75;57.33
50977;BME280;36992;48.200;12.418;2023-08-07T07:41:57;96600.91;;;14.75;57.30
50977;BME280;36992;48.200;12.418;2023-08-07T07:44:23;96610.31;;;14.78;56.64
50977;BME280;36992;48.200;12.418;2023-08-07T07:46:50;96612.66;;;14.79;55.46
50977;BME280;36992;48.200;12.418;2023-08-07T07:49:17;96607.25;;;14.79;56.47
50977;BME280;36992;48.200;12.418;2023-08-07T07:51:43;96608.53;;;14.82;56.42
50977;BME280;36992;48.200;12.418;2023-08-07T07:54:13;96616.50;;;14.87;56.93
50977;BME280;36992;48.200;12.418;2023-08-07T07:56:39;96631.63;;;14.88;54.90
50977;BME280;36992;48.200;12.418;2023-08-07T07:59:06;96626.22;;;14.88;55.52
50977;BME280;36992;48.200;12.418;2023-08-07T08:01:32;96615.53;;;14.92;56.58
50977;BME280;36992;48.200;12.418;2023-08-07T08:03:58;96623.50;;;14.97;56.08
50977;BME280;36992;48.200;12.418;2023-08-07T08:06:25;96622.38;;;14.98;55.83
50977;BME280;36992;48.200;12.418;2023-08-07T08:08:51;96623.00;;;15.04;56.18
50977;BME280;36992;48.200;12.418;2023-08-07T08:11:19;96624.09;;;15.12;56.29
50977;BME280;36992;48.200;12.418;2023-08-07T08:13:46;96634.28;;;15.15;55.74
50977;BME280;36992;48.200;12.418;2023-08-07T08:16:12;96630.59;;;15.19;55.62
50977;BME280;36992;48.200;12.418;2023-08-07T08:18:38;96636.53;;;15.21;54.50
50977;BME280;36992;48.200;12.418;2023-08-07T08:21:05;96642.25;;;15.29;54.90
50977;BME280;36992;48.200;12.418;2023-08-07T08:23:31;96633.78;;;15.30;54.68
50977;BME280;36992;48.200;12.418;2023-08-07T08:25:58;96632.00;;;15.34;54.27
50977;BME280;36992;48.200;12.418;2023-08-07T08:28:26;96633.75;;;15.39;54.12
50977;BME280;36992;48.200;12.418;2023-08-07T08:30:52;96629.91;;;15.40;53.97
50977;BME280;36992;48.200;12.418;2023-08-07T08:33:19;96650.97;;;15.43;54.27
50977;BME280;36992;48.200;12.418;2023-08-07T08:35:45;96644.91;;;15.46;53.05
50977;BME280;36992;48.200;12.418;2023-08-07T08:38:12;96639.94;;;15.48;53.57
50977;BME280;36992;48.200;12.418;2023-08-07T08:40:38;96645.81;;;15.50;53.03
50977;BME280;36992;48.200;12.418;2023-08-07T08:43:06;96648.34;;;15.56;53.35
50977;BME280;36992;48.200;12.418;2023-08-07T08:45:34;96654.72;;;15.60;53.46
50977;BME280;36992;48.200;12.418;2023-08-07T08:48:04;96655.50;;;15.60;52.94
50977;BME280;36992;48.200;12.418;2023-08-07T08:50:32;96650.25;;;15.64;52.30
50977;BME280;36992;48.200;12.418;2023-08-07T08:52:59;96658.06;;;15.65;51.29
50977;BME280;36992;48.200;12.418;2023-08-07T08:55:27;96647.31;;;15.69;51.66
50977;BME280;36992;48.200;12.418;2023-08-07T08:57:54;96654.84;;;15.72;52.05
50977;BME280;36992;48.200;12.418;2023-08-07T09:00:21;96649.22;;;15.77;52.22
50977;BME280;36992;48.200;12.418;2023-08-07T09:02:52;96653.22;;;15.80;51.73
50977;BME280;36992;48.200;12.418;2023-08-07T09:05:20;96658.78;;;15.84;51.84
50977;BME280;36992;48.200;12.418;2023-08-07T09:07:47;96662.75;;;15.86;51.57
50977;BME280;36992;48.200;12.418;2023-08-07T09:10:15;96666.09;;;15.92;51.24
50977;BME280;36992;48.200;12.418;2023-08-07T09:12:47;96664.78;;;15.98;51.52
50977;BME280;36992;48.200;12.418;2023-08-07T09:15:16;96667.97;;;16.00;50.56
50977;BME280;36992;48.200;12.418;2023-08-07T09:17:43;96684.75;;;16.02;50.38
50977;BME280;36992;48.200;12.418;2023-08-07T09:20:12;96665.06;;;16.05;50.92
50977;BME280;36992;48.200;12.418;2023-08-07T09:22:40;96670.19;;;16.07;50.17
50977;BME280;36992;48.200;12.418;2023-08-07T09:25:08;96675.28;;;16.09;50.23
50977;BME280;36992;48.200;12.418;2023-08-07T09:27:35;96670.00;;;16.12;50.46
50977;BME280;36992;48.200;12.418;2023-08-07T09:30:05;96683.38;;;16.17;51.08
50977;BME280;36992;48.200;12.418;2023-08-07T09:32:33;96680.66;;;16.17;50.66
50977;BME280;36992;48.200;12.418;2023-08-07T09:35:02;96682.25;;;16.18;49.44
50977;BME280;36992;48.200;12.418;2023-08-07T09:37:30;96678.09;;;16.21;49.35
50977;BME280;36992;48.200;12.418;2023-08-07T09:39:56;96685.09;;;16.22;49.90
50977;BME280;36992;48.200;12.418;2023-08-07T09:42:25;96675.81;;;16.23;50.29
50977;BME280;36992;48.200;12.418;2023-08-07T09:44:56;96675.81;;;16.23;49.29
50977;BME280;36992;48.200;12.418;2023-08-07T09:47:22;96673.56;;;16.25;49.46
50977;BME280;36992;48.200;12.418;2023-08-07T09:49:54;96685.84;;;16.31;49.86
50977;BME280;36992;48.200;12.418;2023-08-07T09:52:20;96686.19;;;16.30;49.18
50977;BME280;36992;48.200;12.418;2023-08-07T09:54:48;96674.00;;;16.36;50.19
50977;BME280;36992;48.200;12.418;2023-08-07T09:57:15;96677.16;;;16.38;49.38
50977;BME280;36992;48.200;12.418;2023-08-07T09:59:42;96690.56;;;16.43;49.50
50977;BME280;36992;48.200;12.418;2023-08-07T10:02:10;96684.13;;;16.48;49.19
50977;BME280;36992;48.200;12.418;2023-08-07T10:04:37;96686.16;;;16.51;48.58
50977;BME280;36992;48.200;12.418;2023-08-07T10:07:04;96687.44;;;16.54;46.99
50977;BME280;36992;48.200;12.418;2023-08-07T10:09:31;96690.97;;;16.54;46.33
50977;BME280;36992;48.200;12.418;2023-08-07T10:12:00;96693.47;;;16.59;46.88
50977;BME280;36992;48.200;12.418;2023-08-07T10:14:26;96691.22;;;16.62;46.79
50977;BME280;36992;48.200;12.418;2023-08-07T10:16:53;96697.47;;;16.62;46.69
50977;BME280;36992;48.200;12.418;2023-08-07T10:19:20;96692.94;;;16.66;46.89
50977;BME280;36992;48.200;12.418;2023-08-07T10:21:47;96696.91;;;16.69;46.16
50977;BME280;36992;48.200;12.418;2023-08-07T10:24:15;96691.59;;;16.72;47.49
50977;BME280;36992;48.200;12.418;2023-08-07T10:26:43;96698.78;;;16.77;47.62
50977;BME280;36992;48.200;12.418;2023-08-07T10:29:16;96706.25;;;16.80;47.27
50977;BME280;36992;48.200;12.418;2023-08-07T10:31:44;96701.84;;;16.76;45.79
50977;BME280;36992;48.200;12.418;2023-08-07T10:34:11;96705.13;;;16.81;46.14
50977;BME280;36992;48.200;12.418;2023-08-07T10:36:39;96708.34;;;16.83;46.81
50977;BME280;36992;48.200;12.418;2023-08-07T10:39:07;96714.56;;;16.84;45.56
50977;BME280;36992;48.200;12.418;2023-08-07T10:41:38;96701.56;;;16.90;45.98
50977;BME280;36992;48.200;12.418;2023-08-07T10:44:18;96708.25;;;16.92;46.53
50977;BME280;36992;48.200;12.418;2023-08-07T10:46:49;96700.88;;;16.93;45.68
50977;BME280;36992;48.200;12.418;2023-08-07T10:49:30;96706.31;;;16.93;45.77
50977;BME280;36992;48.200;12.418;2023-08-07T10:51:57;96697.38;;;16.92;43.94
50977;BME280;36992;48.200;12.418;2023-08-07T10:54:24;96693.97;;;16.95;45.92
50977;BME280;36992;48.200;12.418;2023-08-07T10:56:53;96701.13;;;17.00;46.41
50977;BME280;36992;48.200;12.418;2023-08-07T10:59:21;96698.22;;;17.05;45.10
50977;BME280;36992;48.200;12.418;2023-08-07T11:01:51;96688.72;;;17.11;45.47
50977;BME280;36992;48.200;12.418;2023-08-07T11:04:18;96690.00;;;17.14;46.03
50977;BME280;36992;48.200;12.418;2023-08-07T11:06:47;96690.22;;;17.21;45.65
50977;BME280;36992;48.200;12.418;2023-08-07T11:09:14;96679.47;;;17.25;45.14
50977;BME280;36992;48.200;12.418;2023-08-07T11:11:42;96676.53;;;17.30;45.76
50977;BME280;36992;48.200;12.418;2023-08-07T11:14:11;96684.38;;;17.32;45.28
50977;BME280;36992;48.200;12.418;2023-08-07T11:16:39;96685.25;;;17.36;44.45
50977;BME280;36992;48.200;12.418;2023-08-07T11:19:06;96685.94;;;17.33;44.00
50977;BME280;36992;48.200;12.418;2023-08-07T11:21:32;96688.34;;;17.34;44.42
50977;BME280;36992;48.200;12.418;2023-08-07T11:23:59;96682.69;;;17.39;44.35
50977;BME280;36992;48.200;12.418;2023-08-07T11:26:26;96688.56;;;17.42;43.98
50977;BME280;36992;48.200;12.418;2023-08-07T11:28:53;96687.13;;;17.44;44.91
50977;BME280;36992;48.200;12.418;2023-08-07T11:31:20;96687.88;;;17.45;43.42
50977;BME280;36992;48.200;12.418;2023-08-07T11:33:51;96684.19;;;17.49;43.93
50977;BME280;36992;48.200;12.418;2023-08-07T11:36:18;96687.22;;;17.48;43.27
50977;BME280;36992;48.200;12.418;2023-08-07T11:38:44;96686.78;;;17.46;42.26
50977;BME280;36992;48.200;12.418;2023-08-07T11:41:12;96680.66;;;17.49;42.95
50977;BME280;36992;48.200;12.418;2023-08-07T11:43:40;96688.16;;;17.52;43.76
50977;BME280;36992;48.200;12.418;2023-08-07T11:46:07;96685.88;;;17.54;42.96
50977;BME280;36992;48.200;12.418;2023-08-07T11:48:34;96686.78;;;17.58;43.22
50977;BME280;36992;48.200;12.418;2023-08-07T11:51:03;96683.63;;;17.69;43.14
50977;BME280;36992;48.200;12.418;2023-08-07T11:53:32;96678.75;;;17.74;42.74
50977;BME280;36992;48.200;12.418;2023-08-07T11:56:00;96675.91;;;17.83;42.77
50977;BME280;36992;48.200;12.418;2023-08-07T11:58:28;96678.38;;;17.88;42.83
50977;BME280;36992;48.200;12.418;2023-08-07T12:01:03;96684.53;;;17.98;43.09
50977;BME280;36992;48.200;12.418;2023-08-07T12:03:31;96674.06;;;18.00;42.12
50977;BME280;36992;48.200;12.418;2023-08-07T12:06:03;96677.53;;;18.09;41.21
50977;BME280;36992;48.200;12.418;2023-08-07T12:08:33;96688.63;;;18.16;40.86
50977;BME280;36992;48.200;12.418;2023-08-07T12:11:02;96682.72;;;18.27;42.10
50977;BME280;36992;48.200;12.418;2023-08-07T12:13:29;96673.16;;;18.33;41.38
50977;BME280;36992;48.200;12.418;2023-08-07T12:15:57;96684.06;;;18.45;42.53
50977;BME280;36992;48.200;12.418;2023-08-07T12:18:26;96675.84;;;18.58;40.42
50977;BME280;36992;48.200;12.418;2023-08-07T12:20:57;96689.22;;;18.63;41.04
50977;BME280;36992;48.200;12.418;2023-08-07T12:23:26;96689.88;;;18.72;40.83
50977;BME280;36992;48.200;12.418;2023-08-07T12:25:53;96703.97;;;18.74;39.33
50977;BME280;36992;48.200;12.418;2023-08-07T12:28:19;96701.22;;;18.74;39.91
50977;BME280;36992;48.200;12.418;2023-08-07T12:30:47;96700.78;;;18.72;38.64
50977;BME280;36992;48.200;12.418;2023-08-07T12:33:14;96709.75;;;18.73;39.82
50977;BME280;36992;48.200;12.418;2023-08-07T12:35:41;96705.09;;;18.73;39.69
50977;BME280;36992;48.200;12.418;2023-08-07T12:38:08;96711.72;;;18.72;39.07
50977;BME280;36992;48.200;12.418;2023-08-07T12:40:36;96707.41;;;18.71;39.76
50977;BME280;36992;48.200;12.418;2023-08-07T12:43:04;96703.97;;;18.74;40.24
50977;BME280;36992;48.200;12.418;2023-08-07T12:45:30;96702.38;;;18.73;39.14
50977;BME280;36992;48.200;12.418;2023-08-07T12:47:57;96702.13;;;18.79;39.39
50977;BME280;36992;48.200;12.418;2023-08-07T12:50:24;96717.81;;;18.82;38.73
50977;BME280;36992;48.200;12.418;2023-08-07T12:52:50;96712.34;;;18.82;38.56
50977;BME280;36992;48.200;12.418;2023-08-07T12:55:17;96706.66;;;18.87;39.08
50977;BME280;36992;48.200;12.418;2023-08-07T12:57:45;96711.16;;;18.95;38.70
50977;BME280;36992;48.200;12.418;2023-08-07T13:00:12;96711.63;;;18.97;38.59
50977;BME280;36992;48.200;12.418;2023-08-07T13:02:40;96720.03;;;19.05;38.36
50977;BME280;36992;48.200;12.418;2023-08-07T13:05:07;96726.41;;;19.09;38.56